Airfield :
LOGIN :

Register | Disclaimer

   EN    FR    IT 

 










Legend :    VFR   Marginal VFR   IFR   Intensive IFR   Very Intensive IFR
Visi :
Ceiling :
>= 8 km
>= 3000ft
5 to 8 km
1000 to 3000 ft
1500m to 5 km
500 to 1000 ft
800 to 1500m
200 to 500 ft
< 800m
< 200 ft
Symbols :   Thunderstorms  Fog  Heavy snow  Heavy precipitations  Wind > 20 kt
SIGMETs :     Misc.  Thunderstorms  Icing  Turbulence  Mountain Waves  Volcanic Ashes






- Airport Elevation : 297 ft


EGVP - Middle Wallop

CURRENT METAR :
  • 141250Z 20013KT 9999 SCT031 17/10 Q1000 TEMPO 6000 SHRA SCT022CB RMK BLU TEMPO WHT

EXPIRED METARs :
  • 141220Z 22009KT 9999 SCT028 16/11 Q1000 TEMPO 6000 SHRA SCT022CB RMK BLU TEMPO WHT
  • 141150Z 21012KT 9999 -SHRA SCT025 SCT060 16/10 Q1001 TEMPO 6000 SHRA SCT024TCU RMK BLU TEMPO WHT
  • 141120Z 22011KT 9999 -SHRA FEW025 BKN060 17/10 Q1001 TEMPO 6000 SHRA SCT024 RMK BLU TEMPO WHT
  • 141050Z 21015KT 9999 VCSH FEW022 SCT060 BKN170 17/11 Q1001 TEMPO 6000 SHRA SCT020 RMK BLU TEMPO WHT
  • 141020Z 21013KT 9999 FEW022 SCT070 16/11 Q1001 TEMPO 6000 SHRA SCT020 RMK BLU TEMPO WHT
  • 140950Z 22010KT 9999 -SHRA FEW020 SCT060 SCT080 15/11 Q1001 TEMPO 6000 SHRA SCT020 RMK BLU TEMPO WHT
  • 140920Z 22010KT 9999 FEW015 SCT180 16/12 Q1001 TEMPO 6000 SHRA SCT018 RMK BLU TEMPO WHT
  • 140850Z 22010KT 9999 VCSH FEW020TCU 13/10 Q1001 TEMPO 6000 SHRA SCT020 RMK BLU TEMPO WHT
  • 140820Z 23012KT 9999 6000S -SHRA BKN020 15/10 Q1001 TEMPO 9999 NSW FEW020 RMK WHT TEMPO BLU

TAF TAF EGVP
Valid from the 14 at 12:00 until the 14 at 17:00 UTC


141024Z 1412/1417 22012KT 9999 SCT025
TEMPO 1412/1417 6000 SHRA SCT022TCU
PROB30
TEMPO 1412/1417 23015G25KT 3000 +SHRA BKN020CB
ATIS : +44 1980 674 142



MET'MAP, your aeronautical weather chart ! - Copyright ORBIFLY December 2007 - Disclaimer

ORBIFLY MET'MAP TEAM :

Programming & Development : Alexandra Zaïnal
Original concept : Baudouin d'Aumeries
Technical & hardware support : Manuel Goepfert
Assistance : Marc-Olivier Méhu




SOURCES & CREDITS :

   NOAA